Wall Blake, Anguilla

12:54 PM AST on September 02, 2014 (GMT -0400)
Wallblake | Change Station
CLOSE
Current Station
Airport
Location: Wall Blake,
Elevation: 95 ft
Nearby Weather Stations

Elev 95 ft 18.20 °N, 63.06 °W | Updated 54 minutes ago

Scattered Clouds
Scattered Clouds
88 °F
Feels Like 98 °F
N
20
Wind Variable Wind from East

Today
High -- | Low -- °F
--% Chance of Precip.
Yesterday
High -- | Low -- °F
Precip. -- in
5:57 AM 6:25 PM
First Quarter, 53% visible
Pressure 30.01 in
Visibility 6.2 miles
Clouds Scattered Clouds 2000 ft
Heat Index 98 °F
Dew Point 75 °F
Humidity 66%
Rainfall 0.00 in
Snow Depth Not available.
UV 14 out of 12
Pollen Not available.
Air Quality Not available.
Flu Activity Not available.
METAR TQPF 021600Z 10017KT 9999 SCT020 31/24 Q1016

More Conditions Fewer Conditions

Pressure 30.01 in
Visibility 6.2 miles
Clouds Scattered Clouds 2000 ft
Heat Index 98 °F
Dew Point 75 °F
Humidity 66%
Rainfall 0.00 in
Snow Depth Not available.
UV 14 out of 12
Pollen Not available.
Air Quality Not available.
Flu Activity Not available.
METAR TQPF 021600Z 10017KT 9999 SCT020 31/24 Q1016

More Conditions Fewer Conditions

10-Day Weather Forecast

Almanac

Astronomy

Sep. 02, 2014 Rise Set
Actual Time 5:57 AM AST 6:25 PM AST
Civil Twilight 5:35 AM AST 6:47 PM AST
Nautical Twilight 5:10 AM AST 7:13 PM AST
Astronomical Twilight 4:44 AM AST 7:39 PM AST
Moon 12:39 PM AST No Moon Set
Length of Visible Light 13h 11m
Length of Day
12h 27m
Tomorrow will be 0m 59s shorter.
First Quarter, 53% of the Moon is Illuminated
Today
First Quarter
Sep 8
Full
Sep 15
Last Quarter
Sep 24
New
Oct 1
First Quarter

Today's Extremes

Country Highs Country Lows

Community

WunderPhotos

Upload Photos

1,749,716 photos uploaded!

WunderBlogs® & News

Nearby

Snow Depth

Not available.

Earthquake Activity

City Distance Mag. Time & Date
No recent earthquake activity has been reported nearby.
Minimum magnitude displayed is 2.5.

Coastal Water Temperatures

Place Temperature
No Stations Reporting

Nearby Weather Stations